Hiawassee, Florida
Current Conditions -  °F | °C
As of 12:53 AM on Sunday 23 Nov 2014 (Local Time) from KORL Reporting Station
Light Rain Light Rain  
Wind Chill: 72°   Ceiling: 4600
Heat Index: 72°   Visibility: 10mi
Dew Point: 68°   Wind: 13mph
Humidity: 87%   Direction: 110°ESE
Pressure: 30.08"   Gusts: NA
Location:  28.5867°N, 81.4891°W
Report Text: KORL 230553Z AUTO 11011KT 10SM -RA FEW022 SCT030 BKN046 22/20 A3008 RMK AO2 RAB21 SLP190 P0000 60000 T02220200 10222 20206 58017
Loading
Personal Weather Stations






























Interactive Weather Map New forecast layout! Learn more

10-Day Weather Forecast

Advertisements
Track Severe Weather on mobile